createdAt,value
2022-11-19T00:01:24.370Z,7.17
2022-11-19T00:03:54.961Z,7.57
2022-11-19T00:06:28.194Z,7.60
2022-11-19T00:08:59.255Z,7.43
2022-11-19T00:11:44.634Z,8.32
2022-11-19T00:14:19.115Z,7.10
2022-11-19T00:16:49.632Z,7.30
2022-11-19T00:19:20.511Z,7.82
2022-11-19T00:21:51.647Z,7.93
2022-11-19T00:24:22.751Z,6.93
2022-11-19T00:26:55.954Z,7.60
2022-11-19T00:29:26.358Z,8.03
2022-11-19T00:31:56.702Z,7.37
2022-11-19T00:34:27.118Z,8.00
2022-11-19T00:36:57.630Z,8.03
2022-11-19T00:39:28.136Z,7.72
2022-11-19T00:42:01.176Z,7.78
2022-11-19T00:44:37.013Z,7.60
2022-11-19T00:47:08.313Z,7.20
2022-11-19T00:49:38.810Z,7.88
2022-11-19T00:52:09.282Z,7.82
2022-11-19T00:54:39.811Z,8.63
2022-11-19T00:57:13.057Z,8.50
2022-11-19T00:59:43.544Z,8.30
2022-11-19T01:02:14.029Z,7.95
2022-11-19T01:04:44.435Z,8.37
2022-11-19T01:07:14.832Z,9.07
2022-11-19T01:09:47.393Z,9.80
2022-11-19T01:12:20.382Z,8.90
2022-11-19T01:14:51.052Z,9.17
2022-11-19T01:17:21.480Z,9.73
2022-11-19T01:19:52.048Z,8.93
2022-11-19T01:22:22.414Z,8.70
2022-11-19T01:24:52.765Z,9.43
2022-11-19T01:27:25.756Z,10.23
2022-11-19T01:29:56.152Z,9.20
2022-11-19T01:32:26.483Z,8.97
2022-11-19T01:34:56.838Z,9.40
2022-11-19T01:37:27.485Z,9.10
2022-11-19T01:39:57.946Z,9.45
2022-11-19T01:42:46.955Z,9.67
2022-11-19T01:45:31.047Z,9.77
2022-11-19T01:48:06.538Z,9.93
2022-11-19T01:50:41.926Z,9.37
2022-11-19T01:53:12.931Z,10.07
2022-11-19T01:55:46.254Z,9.95
2022-11-19T01:58:24.505Z,10.07
2022-11-19T02:00:55.422Z,9.53
2022-11-19T02:03:26.084Z,10.35
2022-11-19T02:05:57.303Z,10.25
2022-11-19T02:11:49.543Z,9.70
2022-11-19T02:14:44.230Z,10.13
2022-11-19T02:17:26.004Z,9.93
2022-11-19T02:20:30.112Z,10.23
2022-11-19T02:23:44.674Z,9.50
2022-11-19T02:27:03.019Z,9.40
2022-11-19T02:30:07.016Z,10.13
2022-11-19T02:32:44.959Z,10.23
2022-11-19T02:35:24.205Z,9.77
2022-11-19T02:38:03.993Z,10.50
2022-11-19T02:40:42.475Z,9.97
2022-11-19T02:43:20.756Z,10.77
2022-11-19T02:45:57.091Z,9.93
2022-11-19T02:48:34.095Z,10.60
2022-11-19T02:51:07.680Z,9.63
2022-11-19T02:53:38.461Z,10.43
2022-11-19T02:56:18.000Z,9.40
2022-11-19T02:59:07.681Z,10.00
2022-11-19T03:01:57.663Z,10.47
2022-11-19T03:04:33.029Z,10.50
2022-11-19T03:07:08.823Z,10.73
2022-11-19T03:09:45.905Z,10.47
2022-11-19T03:12:26.272Z,10.27
2022-11-19T03:15:13.679Z,10.05
2022-11-19T03:18:07.725Z,11.00
2022-11-19T03:20:43.997Z,10.80
2022-11-19T03:23:21.413Z,11.13
2022-11-19T03:25:56.795Z,11.10
2022-11-19T03:28:33.713Z,9.93
2022-11-19T03:31:05.560Z,11.20
2022-11-19T03:33:44.735Z,11.90
2022-11-19T03:36:21.702Z,10.73
2022-11-19T03:38:59.167Z,11.17
2022-11-19T03:41:31.234Z,10.83
2022-11-19T03:44:08.306Z,10.10
2022-11-19T03:46:40.572Z,9.93
2022-11-19T03:49:16.680Z,10.83
2022-11-19T03:51:53.731Z,10.53
2022-11-19T03:54:24.487Z,10.97
2022-11-19T03:56:55.920Z,10.48
2022-11-19T03:59:29.926Z,10.63
2022-11-19T04:02:05.509Z,11.57
2022-11-19T04:04:38.749Z,10.73
2022-11-19T04:07:12.334Z,10.63
2022-11-19T04:09:44.207Z,11.33
2022-11-19T04:12:21.136Z,11.03
2022-11-19T04:14:52.084Z,10.97
2022-11-19T04:17:23.235Z,11.13
2022-11-19T04:19:56.350Z,10.88
2022-11-19T04:22:26.737Z,11.47
2022-11-19T04:24:57.154Z,11.40
2022-11-19T04:27:27.537Z,11.13
2022-11-19T04:29:57.874Z,12.70
2022-11-19T04:32:28.323Z,12.00
2022-11-19T04:35:01.327Z,11.77
2022-11-19T04:37:31.775Z,10.93
2022-11-19T04:40:02.117Z,11.77
2022-11-19T04:42:32.443Z,11.67
2022-11-19T04:45:02.902Z,12.70
2022-11-19T04:47:33.404Z,11.85
2022-11-19T04:50:06.803Z,11.10
2022-11-19T04:52:40.794Z,12.20
2022-11-19T04:55:13.882Z,12.33
2022-11-19T04:57:44.261Z,12.03
2022-11-19T05:00:17.840Z,11.63
2022-11-19T05:02:48.415Z,13.03
2022-11-19T05:05:21.603Z,12.80
2022-11-19T05:07:51.975Z,12.40
2022-11-19T05:10:22.531Z,13.37
2022-11-19T05:12:52.954Z,12.23
2022-11-19T05:15:23.354Z,12.90
2022-11-19T05:17:53.856Z,13.17
2022-11-19T05:20:26.956Z,12.82
2022-11-19T05:22:57.403Z,12.70
2022-11-19T05:25:27.919Z,13.53
2022-11-19T05:27:58.447Z,12.75
2022-11-19T05:30:28.910Z,12.70
2022-11-19T05:32:59.366Z,11.57
2022-11-19T05:35:32.498Z,13.00
2022-11-19T05:38:03.023Z,13.40
2022-11-19T05:40:33.464Z,12.27
2022-11-19T05:43:08.322Z,13.27
2022-11-19T05:45:38.933Z,12.03
2022-11-19T05:48:09.946Z,13.05
2022-11-19T05:50:44.918Z,12.55
2022-11-19T05:53:15.256Z,12.00
2022-11-19T05:55:45.657Z,12.97
2022-11-19T05:58:16.445Z,12.47
2022-11-19T06:00:47.002Z,11.75
2022-11-19T06:03:17.513Z,11.77
2022-11-19T06:05:50.648Z,12.02
2022-11-19T06:08:21.105Z,12.90
2022-11-19T06:10:51.555Z,13.27
2022-11-19T06:13:21.937Z,12.80
2022-11-19T06:15:52.268Z,11.77
2022-11-19T06:18:22.566Z,13.27
2022-11-19T06:20:55.538Z,11.57
2022-11-19T06:23:25.877Z,12.33
2022-11-19T06:25:57.831Z,12.57
2022-11-19T06:28:28.205Z,12.17
2022-11-19T06:30:58.595Z,11.93
2022-11-19T06:33:29.150Z,12.03
2022-11-19T06:36:02.231Z,12.15
2022-11-19T06:38:32.551Z,11.87
2022-11-19T06:41:02.958Z,12.17
2022-11-19T06:43:33.305Z,13.97
2022-11-19T06:46:03.692Z,13.47
2022-11-19T06:48:34.045Z,12.57
2022-11-19T06:51:08.020Z,11.97
2022-11-19T06:53:38.618Z,11.70
2022-11-19T06:56:10.895Z,11.73
2022-11-19T06:58:41.459Z,11.63
2022-11-19T07:01:11.902Z,12.00
2022-11-19T07:03:42.236Z,12.50
2022-11-19T07:06:15.212Z,12.37
2022-11-19T07:08:45.550Z,12.73
2022-11-19T07:11:31.256Z,11.47
2022-11-19T07:14:03.615Z,11.27
2022-11-19T07:16:36.986Z,12.17
2022-11-19T07:19:09.919Z,12.27
2022-11-19T07:21:42.866Z,13.23
2022-11-19T07:24:13.985Z,11.63
2022-11-19T07:26:44.632Z,11.48
2022-11-19T07:29:18.081Z,12.38
2022-11-19T07:31:50.728Z,11.20
2022-11-19T07:34:21.887Z,11.20
2022-11-19T07:36:55.623Z,11.35
2022-11-19T07:39:26.366Z,10.63
2022-11-19T07:42:09.190Z,11.27
2022-11-19T07:44:43.988Z,11.43
2022-11-19T07:47:14.746Z,11.75
2022-11-19T07:49:45.218Z,10.55
2022-11-19T07:52:18.214Z,10.97
2022-11-19T07:54:48.643Z,11.00
2022-11-19T07:57:19.070Z,11.37
2022-11-19T07:59:49.456Z,10.73
2022-11-19T08:02:20.390Z,10.83
2022-11-19T08:04:50.831Z,9.82
2022-11-19T08:07:24.044Z,8.20
2022-11-19T08:09:54.478Z,7.70
2022-11-19T08:12:24.867Z,7.77
2022-11-19T08:14:55.313Z,7.30
2022-11-19T08:17:38.100Z,7.35
2022-11-19T08:20:10.548Z,7.50
2022-11-19T08:22:43.544Z,7.10
2022-11-19T08:25:13.992Z,6.83
2022-11-19T08:27:44.312Z,6.47
2022-11-19T08:30:16.397Z,7.07
2022-11-19T08:32:46.810Z,6.50
2022-11-19T08:35:17.348Z,6.47
2022-11-19T08:37:51.495Z,6.22
2022-11-19T08:40:22.426Z,7.40
2022-11-19T08:43:07.789Z,7.63
2022-11-19T08:45:40.810Z,7.80
2022-11-19T08:48:13.625Z,8.00
2022-11-19T08:50:45.444Z,7.03
2022-11-19T08:53:18.464Z,7.55
2022-11-19T08:55:53.985Z,7.80
2022-11-19T08:58:24.598Z,7.60
2022-11-19T09:00:55.176Z,6.15
2022-11-19T09:03:25.840Z,8.00
2022-11-19T09:06:02.348Z,8.32
2022-11-19T09:08:36.338Z,7.28
2022-11-19T09:11:10.622Z,7.07
2022-11-19T09:13:41.512Z,7.40
2022-11-19T09:16:13.358Z,6.97
2022-11-19T09:18:44.227Z,6.07
2022-11-19T09:21:15.770Z,5.40
2022-11-19T09:23:48.804Z,5.70
2022-11-19T09:26:21.652Z,5.85
2022-11-19T09:28:52.574Z,5.97
2022-11-19T09:31:23.821Z,5.85
2022-11-19T09:36:25.986Z,6.32
2022-11-19T09:39:03.779Z,4.80
2022-11-19T09:41:51.673Z,5.15
2022-11-19T09:44:43.543Z,5.80
2022-11-19T09:47:28.891Z,5.55
2022-11-19T09:50:09.848Z,5.00
2022-11-19T09:52:47.288Z,5.13
2022-11-19T09:55:26.624Z,5.05
2022-11-19T09:57:59.623Z,5.47
2022-11-19T10:00:32.991Z,5.25
2022-11-19T10:03:15.334Z,5.28
2022-11-19T10:06:04.452Z,5.45
2022-11-19T10:08:52.528Z,5.75
2022-11-19T10:11:42.483Z,5.97
2022-11-19T10:14:25.829Z,5.43
2022-11-19T10:17:07.526Z,6.03
2022-11-19T10:19:52.277Z,6.00
2022-11-19T10:22:28.420Z,5.75
2022-11-19T10:25:06.546Z,5.75
2022-11-19T10:27:46.174Z,6.00
2022-11-19T10:30:20.636Z,5.78
2022-11-19T10:33:00.693Z,5.57
2022-11-19T10:35:34.574Z,6.50
2022-11-19T10:38:08.469Z,6.05
2022-11-19T10:40:46.770Z,5.30
2022-11-19T10:43:30.844Z,5.07
2022-11-19T10:46:04.414Z,6.20
2022-11-19T10:48:43.447Z,5.75
2022-11-19T10:51:20.825Z,6.15
2022-11-19T10:53:52.513Z,5.88
2022-11-19T10:56:26.317Z,6.40
2022-11-19T10:59:06.594Z,6.60
2022-11-19T11:01:41.240Z,6.57
2022-11-19T11:04:23.259Z,5.80
2022-11-19T11:06:57.820Z,5.60
2022-11-19T11:09:39.800Z,6.03
2022-11-19T11:12:30.416Z,6.18
2022-11-19T11:15:17.535Z,6.63
2022-11-19T11:17:50.044Z,6.28
2022-11-19T11:20:29.027Z,6.70
2022-11-19T11:23:08.775Z,6.93
2022-11-19T11:25:41.817Z,6.30
2022-11-19T11:28:18.538Z,6.70
2022-11-19T11:31:00.070Z,6.90
2022-11-19T11:33:35.544Z,6.30
2022-11-19T11:36:10.748Z,13.98
2022-11-19T11:38:47.732Z,7.90
2022-11-19T11:44:23.247Z,6.38
2022-11-19T11:46:59.529Z,5.82
2022-11-19T11:49:35.181Z,6.38
2022-11-19T11:52:20.448Z,7.70
2022-11-19T11:55:03.265Z,6.47
2022-11-19T11:57:36.901Z,7.05
2022-11-19T12:00:40.393Z,6.82
2022-11-19T12:03:18.852Z,5.68
2022-11-19T12:06:03.271Z,6.03
2022-11-19T12:08:51.074Z,6.60
2022-11-19T12:11:48.868Z,6.43
2022-11-19T12:14:24.683Z,6.57
2022-11-19T12:17:11.981Z,6.38
2022-11-19T12:20:08.447Z,6.10
2022-11-19T12:22:53.435Z,8.68
2022-11-19T12:25:36.535Z,6.95
2022-11-19T12:28:37.674Z,6.53
2022-11-19T12:31:22.808Z,5.65
2022-11-19T12:34:11.430Z,5.72
2022-11-19T12:36:56.954Z,6.10
2022-11-19T12:39:41.283Z,5.47
2022-11-19T12:42:33.060Z,5.90
2022-11-19T12:45:13.398Z,6.38
2022-11-19T12:50:45.198Z,6.13
2022-11-19T12:53:35.913Z,6.30
2022-11-19T12:56:22.434Z,6.45
2022-11-19T12:59:03.925Z,6.30
2022-11-19T13:01:39.228Z,5.72
2022-11-19T13:04:18.807Z,5.50
2022-11-19T13:06:56.156Z,5.57
2022-11-19T13:09:48.932Z,5.65
2022-11-19T13:12:24.489Z,5.68
2022-11-19T13:14:59.927Z,6.40
2022-11-19T13:17:36.753Z,6.63
2022-11-19T13:20:15.185Z,6.55
2022-11-19T13:22:49.452Z,6.55
2022-11-19T13:25:27.667Z,6.95
2022-11-19T13:28:03.977Z,6.75
2022-11-19T13:30:37.582Z,7.05
2022-11-19T13:33:21.118Z,6.80
2022-11-19T13:36:03.535Z,7.50
2022-11-19T13:38:45.176Z,7.50
2022-11-19T13:41:25.180Z,7.40
2022-11-19T13:44:11.146Z,7.53
2022-11-19T13:46:46.317Z,8.15
2022-11-19T13:49:22.982Z,7.80
2022-11-19T13:52:01.501Z,7.60
2022-11-19T13:54:38.739Z,8.13
2022-11-19T13:57:28.005Z,7.28
2022-11-19T14:00:03.710Z,7.90
2022-11-19T14:03:13.406Z,7.90
2022-11-19T14:06:07.929Z,7.60
2022-11-19T14:09:03.681Z,8.18
2022-11-19T14:12:20.998Z,8.30
2022-11-19T14:15:46.316Z,8.93
2022-11-19T14:18:39.898Z,8.40
2022-11-19T14:22:00.634Z,9.05
2022-11-19T14:25:15.720Z,9.73
2022-11-19T14:27:49.108Z,9.25
2022-11-19T14:30:22.779Z,9.52
2022-11-19T14:32:55.135Z,9.65
2022-11-19T14:35:38.411Z,8.60
2022-11-19T14:38:37.244Z,9.00
2022-11-19T14:41:19.073Z,8.52
2022-11-19T14:44:15.341Z,8.75
2022-11-19T14:46:48.664Z,8.63
2022-11-19T14:49:35.861Z,8.77
2022-11-19T14:52:18.350Z,9.98
2022-11-19T14:54:56.460Z,8.50
2022-11-19T14:57:33.761Z,8.23
2022-11-19T15:00:10.574Z,8.53
2022-11-19T15:02:45.916Z,8.30
2022-11-19T15:05:23.459Z,9.67
2022-11-19T15:07:56.558Z,9.40
2022-11-19T15:10:49.230Z,9.27
2022-11-19T15:13:26.740Z,11.30
2022-11-19T15:16:08.914Z,9.23
2022-11-19T15:19:20.466Z,10.47
2022-11-19T15:25:05.425Z,8.47
2022-11-19T15:28:02.472Z,11.20
2022-11-19T15:30:52.231Z,9.10
2022-11-19T15:34:05.129Z,8.77
2022-11-19T15:36:39.778Z,8.87
2022-11-19T15:39:19.866Z,8.93
2022-11-19T15:42:14.132Z,9.03
2022-11-19T15:44:52.655Z,9.30
2022-11-19T15:47:29.268Z,9.20
2022-11-19T15:50:03.568Z,11.80
2022-11-19T15:52:35.328Z,13.27
2022-11-19T15:55:20.462Z,12.87
2022-11-19T15:57:56.136Z,10.93
2022-11-19T16:00:27.430Z,9.70
2022-11-19T16:02:58.427Z,9.57
2022-11-19T16:05:34.197Z,9.15
2022-11-19T16:08:12.204Z,9.33
2022-11-19T16:10:45.343Z,10.37
2022-11-19T16:13:42.002Z,10.43
2022-11-19T16:16:31.727Z,9.90
2022-11-19T16:19:02.381Z,9.10
2022-11-19T16:21:40.937Z,9.38
2022-11-19T16:24:31.839Z,9.10
2022-11-19T16:27:04.542Z,9.75
2022-11-19T16:29:39.338Z,8.67
2022-11-19T16:32:10.464Z,8.53
2022-11-19T16:34:40.949Z,8.68
2022-11-19T16:37:16.753Z,9.05
2022-11-19T16:39:53.790Z,8.90
2022-11-19T16:42:27.167Z,8.80
2022-11-19T16:45:00.032Z,10.43
2022-11-19T16:47:33.780Z,9.37
2022-11-19T16:50:08.242Z,8.50
2022-11-19T16:52:44.700Z,10.20
2022-11-19T16:55:49.327Z,11.43
2022-11-19T16:58:25.732Z,10.90
2022-11-19T17:00:59.819Z,12.17
2022-11-19T17:03:39.783Z,12.43
2022-11-19T17:06:19.712Z,14.30
2022-11-19T17:09:00.118Z,16.37
2022-11-19T17:12:03.379Z,16.70
2022-11-19T17:14:53.015Z,15.17
2022-11-19T17:17:41.320Z,17.23
2022-11-19T17:21:02.632Z,15.37
2022-11-19T17:23:35.930Z,13.73
2022-11-19T17:26:11.283Z,14.33
2022-11-19T17:28:45.511Z,15.00
2022-11-19T17:31:22.991Z,16.00
2022-11-19T17:34:09.772Z,15.20
2022-11-19T17:36:49.659Z,15.20
2022-11-19T17:39:25.912Z,19.90
2022-11-19T17:42:12.478Z,20.90
2022-11-19T17:44:43.407Z,16.87
2022-11-19T17:47:22.898Z,15.27
2022-11-19T17:49:55.344Z,16.87
2022-11-19T17:52:28.774Z,18.60
2022-11-19T17:55:02.532Z,16.47
2022-11-19T17:57:42.215Z,17.07
2022-11-19T18:00:15.871Z,16.83
2022-11-19T18:02:48.878Z,16.13
2022-11-19T18:05:24.174Z,15.60
2022-11-19T18:07:55.093Z,15.93
2022-11-19T18:10:25.716Z,14.90
2022-11-19T18:12:58.724Z,16.23
2022-11-19T18:15:29.572Z,16.43
2022-11-19T18:18:00.085Z,17.95
2022-11-19T18:20:30.704Z,17.48
2022-11-19T18:23:01.251Z,16.83
2022-11-19T18:25:31.747Z,17.48
2022-11-19T18:28:05.008Z,14.93
2022-11-19T18:30:36.245Z,16.00
2022-11-19T18:35:36.913Z,16.47
2022-11-19T18:38:07.679Z,17.33
2022-11-19T18:40:39.037Z,13.90
2022-11-19T18:43:24.818Z,14.80
2022-11-19T18:45:55.170Z,15.13
2022-11-19T18:48:25.555Z,16.63
2022-11-19T18:50:56.113Z,15.67
2022-11-19T18:53:26.607Z,16.25
2022-11-19T18:55:57.858Z,15.85
2022-11-19T18:58:32.582Z,15.45
2022-11-19T19:01:07.269Z,15.93
2022-11-19T19:03:38.394Z,15.63
2022-11-19T19:06:11.247Z,15.85
2022-11-19T19:08:42.267Z,15.07
2022-11-19T19:11:26.098Z,16.98
2022-11-19T19:13:59.299Z,17.13
2022-11-19T19:16:30.592Z,19.00
2022-11-19T19:21:31.431Z,19.27
2022-11-19T19:24:05.325Z,22.33
2022-11-19T19:26:35.723Z,22.67
2022-11-19T19:29:09.404Z,21.80
2022-11-19T19:31:40.234Z,21.87
2022-11-19T19:34:10.950Z,20.88
2022-11-19T19:36:41.434Z,18.38
2022-11-19T19:39:12.122Z,16.33
2022-11-19T19:41:42.597Z,16.45
2022-11-19T19:44:15.865Z,16.20
2022-11-19T19:46:46.197Z,17.80
2022-11-19T19:49:16.646Z,19.10
2022-11-19T19:51:47.114Z,18.23
2022-11-19T19:54:17.575Z,18.50
2022-11-19T19:56:48.089Z,17.52
2022-11-19T19:59:21.598Z,18.75
2022-11-19T20:01:52.943Z,17.90
2022-11-19T20:04:23.449Z,18.08
2022-11-19T20:06:54.039Z,17.52
2022-11-19T20:09:25.081Z,16.33
2022-11-19T20:14:28.700Z,17.20
2022-11-19T20:16:59.109Z,19.47
2022-11-19T20:19:29.500Z,18.20
2022-11-19T20:22:00.002Z,19.00
2022-11-19T20:24:30.663Z,18.75
2022-11-19T20:27:01.107Z,18.92
2022-11-19T20:29:34.351Z,19.53
2022-11-19T20:32:04.926Z,20.40
2022-11-19T20:34:35.399Z,20.35
2022-11-19T20:37:06.052Z,19.20
2022-11-19T20:39:36.508Z,19.55
2022-11-19T20:42:19.596Z,18.95
2022-11-19T20:44:52.627Z,20.40
2022-11-19T20:47:23.008Z,21.00
2022-11-19T20:49:53.601Z,21.53
2022-11-19T20:52:24.343Z,20.45
2022-11-19T20:54:55.045Z,19.15
2022-11-19T20:57:25.473Z,19.83
2022-11-19T20:59:58.526Z,18.17
2022-11-19T21:02:29.509Z,19.00
2022-11-19T21:05:00.290Z,20.27
2022-11-19T21:07:30.821Z,19.63
2022-11-19T21:10:07.449Z,17.42
2022-11-19T21:12:58.436Z,17.30
2022-11-19T21:15:32.267Z,19.03
2022-11-19T21:18:02.716Z,18.60
2022-11-19T21:20:33.395Z,19.98
2022-11-19T21:23:04.101Z,19.25
2022-11-19T21:25:34.985Z,22.08
2022-11-19T21:28:05.696Z,18.85
2022-11-19T21:30:40.372Z,18.85
2022-11-19T21:33:10.809Z,17.57
2022-11-19T21:35:44.239Z,17.27
2022-11-19T21:38:14.605Z,16.50
2022-11-19T21:40:46.754Z,18.17
2022-11-19T21:43:17.136Z,18.37
2022-11-19T21:45:50.710Z,19.27
2022-11-19T21:48:21.189Z,19.73
2022-11-19T21:50:52.438Z,19.45
2022-11-19T21:53:23.496Z,19.67
2022-11-19T21:55:54.086Z,19.50
2022-11-19T21:58:24.510Z,18.25
2022-11-19T22:01:01.052Z,18.73
2022-11-19T22:03:33.358Z,18.00
2022-11-19T22:06:06.122Z,18.80
2022-11-19T22:08:39.499Z,18.70
2022-11-19T22:11:23.128Z,18.77
2022-11-19T22:13:53.656Z,17.73
2022-11-19T22:16:26.934Z,17.45
2022-11-19T22:18:57.306Z,17.30
2022-11-19T22:21:29.610Z,17.53
2022-11-19T22:24:00.732Z,16.40
2022-11-19T22:26:31.346Z,16.48
2022-11-19T22:29:01.882Z,17.83
2022-11-19T22:31:35.288Z,17.10
2022-11-19T22:34:05.891Z,17.80
2022-11-19T22:36:36.450Z,17.20
2022-11-19T22:39:08.010Z,16.63
2022-11-19T22:41:38.601Z,15.10
2022-11-19T22:44:09.126Z,16.52
2022-11-19T22:46:42.274Z,15.90
2022-11-19T22:49:12.684Z,15.73
2022-11-19T22:51:43.117Z,17.27
2022-11-19T22:54:15.463Z,18.10
2022-11-19T22:56:45.927Z,18.40
2022-11-19T22:59:16.345Z,19.80
2022-11-19T23:01:49.841Z,23.17
2022-11-19T23:04:20.230Z,22.33
2022-11-19T23:06:50.599Z,21.97
2022-11-19T23:09:21.191Z,20.27
2022-11-19T23:12:04.107Z,18.80
2022-11-19T23:14:34.733Z,17.70
2022-11-19T23:17:08.061Z,17.20
2022-11-19T23:19:40.561Z,16.47
2022-11-19T23:22:10.939Z,15.40
2022-11-19T23:24:41.343Z,17.53
2022-11-19T23:27:22.478Z,19.13
2022-11-19T23:29:52.970Z,19.00
2022-11-19T23:32:26.422Z,18.90
2022-11-19T23:34:57.028Z,20.73
2022-11-19T23:37:27.512Z,22.15
2022-11-19T23:39:58.021Z,21.17
2022-11-19T23:42:28.487Z,20.05
2022-11-19T23:44:58.947Z,17.40
2022-11-19T23:47:32.040Z,17.07
2022-11-19T23:50:02.477Z,17.83
2022-11-19T23:52:33.631Z,17.35
2022-11-19T23:55:04.139Z,16.35
2022-11-19T23:57:34.674Z,21.25
